CheckWX is a tool to help pilots better visualize weather data.  It is not intended as a substitute for an official pre-flight weather briefing.

09:24:22 UTC

KRFI METAR
Rusk County Airport
Henderson, Texas, USA
Current

29 mins ago

KRFI 200855Z AUTO 00000KT 5SM OVC003 04/03 A2991 RMK AO2 P0006 60006 T00350030
Observed
Feb-20 @ 08:55 UTC
Visibility
8,047 meters
Flight Rules
LIFR
Cloud Levels
  • Overcast at 300' AGL
Temperature
C / 39°F
Dewpoint
C / 37°F
Humidity
93%
Altimeter
29.91" Hg
Pressure
1012.92 hPa
Current Rain
0.06"
Previous

49 mins ago

KRFI 200835Z AUTO 00000KT 10SM OVC003 03/03 A2990 RMK AO2 T00330030
Observed
Feb-20 @ 08:35 UTC
Visibility
16,093 meters
Flight Rules
LIFR
Cloud Levels
  • Overcast at 300' AGL
Temperature
C / 37°F
Dewpoint
C / 37°F
Humidity
100%
Altimeter
29.9" Hg
Pressure
1012.52 hPa
Previous

1 hour ago

KRFI 200815Z AUTO 01003KT 10SM OVC005 03/03 A2989 RMK AO2 T00340030
Observed
Feb-20 @ 08:15 UTC
Wind
  • 010° at 3 KTS
Visibility
16,093 meters
Flight Rules
IFR
Cloud Levels
  • Overcast at 500' AGL
Temperature
C / 37°F
Dewpoint
C / 37°F
Humidity
100%
Altimeter
29.89" Hg
Pressure
1012.22 hPa